createdAt,value
2017-05-30T00:00:17.053Z,59.14
2017-05-30T00:00:43.196Z,59.17
2017-05-30T00:01:09.323Z,59.14
2017-05-30T00:01:35.428Z,59.07
2017-05-30T00:02:01.549Z,59.07
2017-05-30T00:02:27.650Z,59.07
2017-05-30T00:02:53.842Z,59.36
2017-05-30T00:03:19.991Z,59.56
2017-05-30T00:03:46.133Z,59.23
2017-05-30T00:04:12.271Z,59.23
2017-05-30T00:04:38.371Z,59.56
2017-05-30T00:05:04.516Z,59.36
2017-05-30T00:05:30.679Z,59.66
2017-05-30T00:05:56.781Z,59.46
2017-05-30T00:06:22.925Z,59.43
2017-05-30T00:06:49.056Z,59.23
2017-05-30T00:07:15.200Z,59.14
2017-05-30T00:07:41.313Z,59.53
2017-05-30T00:08:07.471Z,59.23
2017-05-30T00:08:33.588Z,59.82
2017-05-30T00:08:59.698Z,59.53
2017-05-30T00:09:25.857Z,59.66
2017-05-30T00:09:51.979Z,59.82
2017-05-30T00:10:18.086Z,59.75
2017-05-30T00:10:44.251Z,60.41
2017-05-30T00:11:10.342Z,60.7
2017-05-30T00:11:36.470Z,60.02
2017-05-30T00:12:02.580Z,60.6
2017-05-30T00:12:28.674Z,60.41
2017-05-30T00:12:54.807Z,60.5
2017-05-30T00:13:21.015Z,60.11
2017-05-30T00:13:47.102Z,60.21
2017-05-30T00:14:13.236Z,60.41
2017-05-30T00:14:39.379Z,60.21
2017-05-30T00:15:05.536Z,60.89
2017-05-30T00:15:31.646Z,60.89
2017-05-30T00:15:57.791Z,60.6
2017-05-30T00:16:23.916Z,61.08
2017-05-30T00:16:50.053Z,60.89
2017-05-30T00:17:16.157Z,61.18
2017-05-30T00:17:42.245Z,61.28
2017-05-30T00:18:08.349Z,61.38
2017-05-30T00:18:34.454Z,61.08
2017-05-30T00:19:00.644Z,61.28
2017-05-30T00:19:26.762Z,61.35
2017-05-30T00:19:52.863Z,61.15
2017-05-30T00:20:18.975Z,61.05
2017-05-30T00:20:45.073Z,61.35
2017-05-30T00:21:11.166Z,61.44
2017-05-30T00:21:37.309Z,61.15
2017-05-30T00:22:03.408Z,61.44
2017-05-30T00:22:29.502Z,61.74
2017-05-30T00:22:55.639Z,61.25
2017-05-30T00:23:21.770Z,61.54
2017-05-30T00:23:47.914Z,61.54
2017-05-30T00:24:14.045Z,61.64
2017-05-30T00:24:40.184Z,61.35
2017-05-30T00:25:06.299Z,61.05
2017-05-30T00:25:32.403Z,61.05
2017-05-30T00:25:58.538Z,61.41
2017-05-30T00:26:24.632Z,61.15
2017-05-30T00:26:50.732Z,61.54
2017-05-30T00:27:16.867Z,61.35
2017-05-30T00:27:43.018Z,61.15
2017-05-30T00:28:09.135Z,60.93
2017-05-30T00:28:35.276Z,60.05
2017-05-30T00:29:01.400Z,60.05
2017-05-30T00:29:27.585Z,60.35
2017-05-30T00:29:53.682Z,60.15
2017-05-30T00:30:19.807Z,60.54
2017-05-30T00:30:45.998Z,60.15
2017-05-30T00:31:12.118Z,60.64
2017-05-30T00:31:38.237Z,60.35
2017-05-30T00:32:04.349Z,60.35
2017-05-30T00:32:30.453Z,60.44
2017-05-30T00:32:56.550Z,59.76
2017-05-30T00:33:22.662Z,59.76
2017-05-30T00:33:48.849Z,59.57
2017-05-30T00:34:14.942Z,59.57
2017-05-30T00:34:41.076Z,59.57
2017-05-30T00:35:07.170Z,59.47
2017-05-30T00:35:33.283Z,59.67
2017-05-30T00:35:59.409Z,60.64
2017-05-30T00:36:25.529Z,59.86
2017-05-30T00:36:51.690Z,59.28
2017-05-30T00:37:17.792Z,59.28
2017-05-30T00:37:43.886Z,59.95
2017-05-30T00:38:10.018Z,60.15
2017-05-30T00:38:36.209Z,60.44
2017-05-30T00:39:02.322Z,59.95
2017-05-30T00:39:28.453Z,60.05
2017-05-30T00:39:54.616Z,60.54
2017-05-30T00:40:20.712Z,60.35
2017-05-30T00:40:46.815Z,59.95
2017-05-30T00:41:12.909Z,60.35
2017-05-30T00:41:39.019Z,60.35
2017-05-30T00:42:05.156Z,60.05
2017-05-30T00:42:31.271Z,60.05
2017-05-30T00:42:57.429Z,60.35
2017-05-30T00:43:23.591Z,60.44
2017-05-30T00:43:49.787Z,60.05
2017-05-30T00:44:15.887Z,60.12
2017-05-30T00:44:42.053Z,60.15
2017-05-30T00:45:08.173Z,60.44
2017-05-30T00:45:34.268Z,60.35
2017-05-30T00:46:00.375Z,60.44
2017-05-30T00:46:26.530Z,59.74
2017-05-30T00:46:52.695Z,59.25
2017-05-30T00:47:18.840Z,59.15
2017-05-30T00:47:44.941Z,60.61
2017-05-30T00:48:11.052Z,59.64
2017-05-30T00:48:37.176Z,59.25
2017-05-30T00:49:03.292Z,59.74
2017-05-30T00:49:29.461Z,59.25
2017-05-30T00:49:55.556Z,59.25
2017-05-30T00:50:21.646Z,59.44
2017-05-30T00:50:47.787Z,59.74
2017-05-30T00:51:13.917Z,59.34
2017-05-30T00:51:40.019Z,59.64
2017-05-30T00:52:06.116Z,59.64
2017-05-30T00:52:32.210Z,60.41
2017-05-30T00:52:58.350Z,59.83
2017-05-30T00:53:24.502Z,59.74
2017-05-30T00:53:50.645Z,60.22
2017-05-30T00:54:16.783Z,60.31
2017-05-30T00:54:42.914Z,60.02
2017-05-30T00:55:09.060Z,60.31
2017-05-30T00:55:35.189Z,59.74
2017-05-30T00:56:01.298Z,59.64
2017-05-30T00:56:27.390Z,59.44
2017-05-30T00:56:53.524Z,60.31
2017-05-30T00:57:19.617Z,59.74
2017-05-30T00:57:45.783Z,59.64
2017-05-30T00:58:11.887Z,59.34
2017-05-30T00:58:37.981Z,59.44
2017-05-30T00:59:04.087Z,59.64
2017-05-30T00:59:30.225Z,60.22
2017-05-30T00:59:56.343Z,59.34
2017-05-30T01:00:22.473Z,59.25
2017-05-30T01:00:48.580Z,58.95
2017-05-30T01:01:14.700Z,59.25
2017-05-30T01:01:40.801Z,59.15
2017-05-30T01:02:06.939Z,59.05
2017-05-30T01:02:33.057Z,59.25
2017-05-30T01:02:59.167Z,59.15
2017-05-30T01:03:25.285Z,59.64
2017-05-30T01:03:51.441Z,59.74
2017-05-30T01:04:17.554Z,59.74
2017-05-30T01:04:43.669Z,59.64
2017-05-30T01:05:09.818Z,59.05
2017-05-30T01:05:35.927Z,59.64
2017-05-30T01:06:02.050Z,60.31
2017-05-30T01:06:28.144Z,59.74
2017-05-30T01:06:54.257Z,59.64
2017-05-30T01:07:20.357Z,59.41
2017-05-30T01:07:46.476Z,59.54
2017-05-30T01:08:12.639Z,60.28
2017-05-30T01:08:38.769Z,60.38
2017-05-30T01:09:04.886Z,60.02
2017-05-30T01:09:31.018Z,60.09
2017-05-30T01:09:57.156Z,59.92
2017-05-30T01:10:23.274Z,60.31
2017-05-30T01:10:49.377Z,59.7
2017-05-30T01:11:15.488Z,59.8
2017-05-30T01:11:41.606Z,60.28
2017-05-30T01:12:07.732Z,60.41
2017-05-30T01:12:33.894Z,60.28
2017-05-30T01:13:00.016Z,60.28
2017-05-30T01:13:26.162Z,60.38
2017-05-30T01:13:52.317Z,60
2017-05-30T01:14:18.418Z,60.28
2017-05-30T01:14:44.556Z,60.09
2017-05-30T01:15:10.648Z,60.28
2017-05-30T01:15:36.771Z,61.07
2017-05-30T01:16:02.883Z,60.58
2017-05-30T01:16:29.008Z,60.19
2017-05-30T01:16:55.125Z,60.28
2017-05-30T01:17:21.262Z,60.48
2017-05-30T01:17:47.386Z,60.48
2017-05-30T01:18:13.555Z,60.58
2017-05-30T01:18:39.718Z,60.68
2017-05-30T01:19:05.847Z,60.58
2017-05-30T01:19:31.950Z,60.58
2017-05-30T01:19:58.101Z,60.38
2017-05-30T01:20:24.218Z,61.07
2017-05-30T01:20:50.331Z,61.35
2017-05-30T01:21:16.432Z,61.35
2017-05-30T01:21:42.523Z,60.94
2017-05-30T01:22:08.660Z,61.25
2017-05-30T01:22:34.819Z,61.35
2017-05-30T01:23:00.938Z,60.97
2017-05-30T01:23:27.126Z,61.25
2017-05-30T01:23:53.235Z,61.32
2017-05-30T01:24:19.327Z,61.94
2017-05-30T01:24:45.454Z,61.35
2017-05-30T01:25:11.627Z,61.65
2017-05-30T01:25:37.769Z,61.84
2017-05-30T01:26:03.898Z,61.91
2017-05-30T01:26:29.991Z,61.94
2017-05-30T01:26:56.121Z,61.74
2017-05-30T01:27:22.255Z,61.61
2017-05-30T01:27:48.371Z,61.91
2017-05-30T01:28:14.501Z,62.01
2017-05-30T01:28:40.666Z,62.1
2017-05-30T01:29:06.784Z,61.81
2017-05-30T01:29:32.908Z,61.61
2017-05-30T01:29:59.083Z,62.01
2017-05-30T01:30:25.516Z,61.71
2017-05-30T01:30:51.649Z,62.1
2017-05-30T01:31:17.739Z,62.62
2017-05-30T01:31:43.868Z,62.88
2017-05-30T01:32:09.978Z,62.78
2017-05-30T01:32:36.070Z,62.78
2017-05-30T01:33:02.221Z,62.91
2017-05-30T01:33:28.330Z,62.68
2017-05-30T01:33:54.449Z,63.39
2017-05-30T01:34:20.564Z,62.78
2017-05-30T01:34:46.728Z,62.78
2017-05-30T01:35:12.857Z,63.01
2017-05-30T01:35:38.952Z,62.91
2017-05-30T01:36:05.064Z,62.81
2017-05-30T01:36:31.236Z,62.81
2017-05-30T01:36:57.348Z,63.39
2017-05-30T01:37:23.445Z,62.98
2017-05-30T01:37:49.564Z,63.07
2017-05-30T01:38:15.703Z,62.88
2017-05-30T01:38:41.860Z,63.39
2017-05-30T01:39:07.979Z,63.65
2017-05-30T01:39:34.116Z,63.56
2017-05-30T01:40:00.247Z,63.65
2017-05-30T01:40:26.341Z,63.56
2017-05-30T01:40:52.447Z,64.14
2017-05-30T01:41:18.557Z,64.04
2017-05-30T01:41:44.652Z,63.75
2017-05-30T01:42:10.753Z,63.85
2017-05-30T01:42:36.869Z,63.95
2017-05-30T01:43:03.033Z,64.14
2017-05-30T01:43:29.189Z,64.43
2017-05-30T01:43:55.282Z,64.43
2017-05-30T01:44:21.441Z,63.95
2017-05-30T01:44:47.551Z,64.43
2017-05-30T01:45:13.666Z,64.62
2017-05-30T01:45:39.767Z,64.14
2017-05-30T01:46:05.877Z,65.11
2017-05-30T01:46:31.971Z,64.72
2017-05-30T01:46:58.069Z,64.62
2017-05-30T01:47:24.168Z,64.43
2017-05-30T01:47:50.303Z,64.82
2017-05-30T01:48:16.411Z,64.43
2017-05-30T01:48:42.524Z,64.82
2017-05-30T01:49:08.653Z,64.82
2017-05-30T01:49:34.790Z,64.62
2017-05-30T01:50:00.909Z,64.82
2017-05-30T01:50:27.008Z,64.62
2017-05-30T01:50:53.144Z,64.33
2017-05-30T01:51:19.266Z,65.01
2017-05-30T01:51:45.407Z,64.82
2017-05-30T01:52:11.569Z,64.82
2017-05-30T01:52:37.669Z,65.11
2017-05-30T01:53:03.764Z,65.2
2017-05-30T01:53:29.900Z,65.11
2017-05-30T01:53:56.058Z,66.17
2017-05-30T01:54:22.153Z,65.79
2017-05-30T01:54:48.313Z,65.79
2017-05-30T01:55:14.506Z,65.69
2017-05-30T01:55:40.624Z,66.27
2017-05-30T01:56:06.750Z,65.75
2017-05-30T01:56:32.860Z,65.47
2017-05-30T01:56:58.953Z,65.98
2017-05-30T01:57:25.054Z,66.17
2017-05-30T01:57:51.247Z,66.08
2017-05-30T01:58:17.396Z,65.79
2017-05-30T01:58:43.558Z,65.79
2017-05-30T01:59:09.673Z,66.17
2017-05-30T01:59:35.775Z,66.14
2017-05-30T02:00:01.942Z,66.37
2017-05-30T02:00:28.034Z,66.27
2017-05-30T02:00:54.158Z,66.63
2017-05-30T02:01:20.266Z,66.82
2017-05-30T02:01:46.392Z,66.72
2017-05-30T02:02:12.511Z,66.72
2017-05-30T02:02:38.678Z,66.82
2017-05-30T02:03:04.806Z,66.63
2017-05-30T02:03:30.950Z,67.21
2017-05-30T02:03:57.087Z,66.53
2017-05-30T02:04:23.243Z,66.82
2017-05-30T02:04:49.377Z,66.92
2017-05-30T02:05:15.528Z,66.72
2017-05-30T02:05:41.620Z,66.63
2017-05-30T02:06:07.732Z,67.11
2017-05-30T02:06:33.835Z,66.92
2017-05-30T02:06:59.955Z,67.21
2017-05-30T02:07:26.089Z,67.34
2017-05-30T02:07:52.221Z,66.86
2017-05-30T02:08:18.338Z,66.56
2017-05-30T02:08:44.495Z,66.44
2017-05-30T02:09:10.661Z,66.76
2017-05-30T02:09:36.780Z,66.44
2017-05-30T02:10:02.906Z,66.53
2017-05-30T02:10:28.999Z,66.86
2017-05-30T02:10:55.107Z,67.4
2017-05-30T02:11:21.208Z,67.11
2017-05-30T02:11:47.303Z,67.11
2017-05-30T02:12:13.434Z,67.31
2017-05-30T02:12:39.546Z,67.21
2017-05-30T02:13:05.660Z,67.21
2017-05-30T02:13:31.764Z,67.21
2017-05-30T02:13:57.898Z,67.31
2017-05-30T02:14:24.017Z,67.89
2017-05-30T02:14:50.166Z,67.5
2017-05-30T02:15:16.329Z,67.31
2017-05-30T02:15:42.429Z,67.11
2017-05-30T02:16:08.523Z,67.5
2017-05-30T02:16:34.633Z,67.31
2017-05-30T02:17:00.734Z,67.31
2017-05-30T02:17:26.852Z,67.5
2017-05-30T02:17:52.989Z,67.31
2017-05-30T02:18:19.176Z,67.69
2017-05-30T02:18:45.295Z,67.5
2017-05-30T02:19:11.401Z,67.79
2017-05-30T02:19:37.593Z,67.69
2017-05-30T02:20:03.711Z,67.6
2017-05-30T02:20:29.812Z,67.89
2017-05-30T02:20:55.911Z,67.79
2017-05-30T02:21:22.018Z,68.08
2017-05-30T02:21:48.151Z,67.89
2017-05-30T02:22:14.268Z,68.28
2017-05-30T02:22:40.374Z,68.47
2017-05-30T02:23:06.483Z,68.57
2017-05-30T02:23:32.675Z,68.47
2017-05-30T02:23:58.802Z,68.76
2017-05-30T02:24:24.939Z,69.24
2017-05-30T02:24:51.031Z,69.24
2017-05-30T02:25:17.152Z,69.24
2017-05-30T02:25:46.281Z,68.92
2017-05-30T02:26:12.739Z,69.31
2017-05-30T02:26:38.854Z,69.34
2017-05-30T02:27:05.044Z,69.93
2017-05-30T02:27:31.136Z,69.93
2017-05-30T02:27:57.256Z,69.93
2017-05-30T02:28:23.414Z,69.93
2017-05-30T02:28:49.570Z,70.18
2017-05-30T02:29:15.665Z,69.73
2017-05-30T02:29:41.797Z,69.99
2017-05-30T02:30:07.962Z,70.28
2017-05-30T02:30:34.054Z,69.79
2017-05-30T02:31:00.154Z,70.28
2017-05-30T02:31:26.264Z,69.7
2017-05-30T02:31:52.359Z,70.09
2017-05-30T02:32:18.466Z,70.28
2017-05-30T02:32:44.558Z,70.47
2017-05-30T02:33:10.690Z,70.67
2017-05-30T02:33:36.856Z,70.37
2017-05-30T02:34:02.996Z,70.47
2017-05-30T02:34:29.099Z,70.47
2017-05-30T02:34:55.208Z,70.28
2017-05-30T02:35:21.302Z,70.67
2017-05-30T02:35:47.403Z,70.37
2017-05-30T02:36:13.512Z,70.18
2017-05-30T02:36:39.630Z,70.76
2017-05-30T02:37:05.722Z,70.47
2017-05-30T02:37:31.834Z,70.47
2017-05-30T02:37:57.936Z,70.67
2017-05-30T02:38:24.030Z,70.57
2017-05-30T02:38:50.167Z,70.76
2017-05-30T02:39:16.269Z,71.25
2017-05-30T02:39:42.364Z,70.76
2017-05-30T02:40:08.470Z,70.47
2017-05-30T02:40:34.581Z,70.28
2017-05-30T02:41:00.669Z,70.37
2017-05-30T02:41:26.771Z,70.47
2017-05-30T02:41:52.880Z,70.47
2017-05-30T02:42:18.975Z,70.47
2017-05-30T02:42:45.126Z,70.67
2017-05-30T02:43:11.231Z,70.96
2017-05-30T02:43:37.332Z,70.67
2017-05-30T02:44:03.471Z,70.57
2017-05-30T02:44:29.589Z,70.67
2017-05-30T02:44:55.694Z,70.28
2017-05-30T02:45:21.802Z,70.57
2017-05-30T02:45:47.922Z,70.28
2017-05-30T02:46:14.020Z,70.18
2017-05-30T02:46:40.130Z,69.89
2017-05-30T02:47:06.227Z,70.67
2017-05-30T02:47:32.394Z,70.37
2017-05-30T02:47:58.534Z,70.86
2017-05-30T02:48:24.713Z,70.28
2017-05-30T02:48:50.819Z,70.67
2017-05-30T02:49:16.911Z,70.57
2017-05-30T02:49:43.035Z,70.47
2017-05-30T02:50:09.142Z,70.47
2017-05-30T02:50:35.262Z,70.67
2017-05-30T02:51:01.380Z,70.86
2017-05-30T02:51:27.521Z,70.96
2017-05-30T02:51:53.621Z,70.47
2017-05-30T02:52:19.768Z,70.86
2017-05-30T02:52:45.868Z,70.67
2017-05-30T02:53:11.996Z,70.09
2017-05-30T02:53:38.114Z,69.99
2017-05-30T02:54:04.270Z,69.89
2017-05-30T02:54:30.363Z,70.37
2017-05-30T02:54:56.500Z,70.18
2017-05-30T02:55:22.600Z,70.18
2017-05-30T02:55:48.696Z,69.89
2017-05-30T02:56:15.106Z,70.28
2017-05-30T02:56:41.240Z,70.18
2017-05-30T02:57:07.331Z,70.37
2017-05-30T02:57:33.435Z,70.57
2017-05-30T02:57:59.544Z,69.99
2017-05-30T02:58:25.634Z,70.37
2017-05-30T02:58:51.762Z,70.67
2017-05-30T02:59:17.870Z,70.47
2017-05-30T02:59:43.988Z,69.99
2017-05-30T03:00:10.118Z,70.28
2017-05-30T03:00:36.213Z,69.99
2017-05-30T03:01:02.315Z,70.28
2017-05-30T03:01:28.450Z,70.28
2017-05-30T03:01:54.542Z,70.28
2017-05-30T03:02:20.680Z,70.28
2017-05-30T03:02:46.874Z,70.05
2017-05-30T03:03:13.041Z,70.44
2017-05-30T03:03:39.191Z,70.63
2017-05-30T03:04:05.327Z,70.44
2017-05-30T03:04:31.473Z,70.83
2017-05-30T03:04:57.589Z,71.12
2017-05-30T03:05:23.694Z,70.44
2017-05-30T03:05:49.821Z,70.44
2017-05-30T03:06:15.932Z,71.12
2017-05-30T03:06:42.053Z,70.54
2017-05-30T03:07:08.155Z,70.44
2017-05-30T03:07:34.264Z,70.63
2017-05-30T03:08:00.414Z,70.83
2017-05-30T03:08:26.555Z,70.92
2017-05-30T03:08:52.718Z,70.92
2017-05-30T03:09:18.844Z,71.31
2017-05-30T03:09:44.936Z,71.6
2017-05-30T03:10:11.097Z,71.22
2017-05-30T03:10:37.257Z,70.63
2017-05-30T03:11:03.359Z,71.12
2017-05-30T03:11:29.481Z,71.22
2017-05-30T03:11:55.600Z,70.63
2017-05-30T03:12:21.713Z,69.95
2017-05-30T03:12:47.890Z,70.25
2017-05-30T03:13:14.009Z,69.67
2017-05-30T03:13:40.149Z,69.37
2017-05-30T03:14:06.307Z,69.95
2017-05-30T03:14:32.401Z,69.85
2017-05-30T03:14:58.562Z,69.27
2017-05-30T03:15:24.728Z,68.92
2017-05-30T03:15:50.819Z,69.21
2017-05-30T03:16:16.943Z,69.02
2017-05-30T03:16:43.040Z,69.12
2017-05-30T03:17:09.149Z,68.15
2017-05-30T03:17:35.287Z,68.82
2017-05-30T03:18:01.402Z,68.99
2017-05-30T03:18:27.559Z,69.6
2017-05-30T03:18:53.725Z,68.82
2017-05-30T03:19:19.840Z,68.82
2017-05-30T03:19:45.946Z,68.92
2017-05-30T03:20:12.055Z,69.21
2017-05-30T03:20:38.170Z,68.79
2017-05-30T03:21:04.318Z,68.92
2017-05-30T03:21:30.477Z,68.24
2017-05-30T03:21:56.574Z,68.73
2017-05-30T03:22:22.668Z,69.08
2017-05-30T03:22:48.780Z,68.5
2017-05-30T03:23:14.881Z,68.44
2017-05-30T03:23:40.997Z,68.34
2017-05-30T03:24:07.131Z,68.15
2017-05-30T03:24:33.260Z,67.76
2017-05-30T03:24:59.401Z,67.66
2017-05-30T03:25:25.507Z,67.85
2017-05-30T03:25:51.671Z,67.76
2017-05-30T03:26:17.788Z,67.85
2017-05-30T03:26:43.892Z,67.76
2017-05-30T03:27:10.002Z,67.76
2017-05-30T03:27:36.096Z,67.85
2017-05-30T03:28:02.253Z,68.05
2017-05-30T03:28:28.371Z,67.85
2017-05-30T03:28:54.532Z,67.76
2017-05-30T03:29:20.641Z,67.47
2017-05-30T03:29:46.783Z,67.66
2017-05-30T03:30:12.885Z,67.57
2017-05-30T03:30:38.997Z,67.37
2017-05-30T03:31:05.113Z,66.89
2017-05-30T03:31:31.214Z,67.08
2017-05-30T03:31:57.324Z,67.08
2017-05-30T03:32:23.448Z,67.18
2017-05-30T03:32:49.543Z,67.72
2017-05-30T03:33:15.650Z,67.57
2017-05-30T03:33:41.778Z,67.34
2017-05-30T03:34:07.912Z,67.08
2017-05-30T03:34:34.030Z,67.24
2017-05-30T03:35:00.179Z,67.76
2017-05-30T03:35:26.288Z,66.99
2017-05-30T03:35:52.387Z,67.44
2017-05-30T03:36:18.502Z,67.37
2017-05-30T03:36:44.624Z,67.27
2017-05-30T03:37:10.724Z,67.18
2017-05-30T03:37:36.841Z,66.89
2017-05-30T03:38:02.975Z,67.08
2017-05-30T03:38:29.105Z,67.37
2017-05-30T03:38:55.215Z,67.47
2017-05-30T03:39:21.354Z,66.99
2017-05-30T03:39:47.469Z,66.79
2017-05-30T03:40:13.608Z,66.4
2017-05-30T03:40:39.706Z,66.69
2017-05-30T03:41:05.820Z,67.08
2017-05-30T03:41:31.930Z,67.08
2017-05-30T03:41:58.062Z,67.08
2017-05-30T03:42:24.157Z,66.79
2017-05-30T03:42:50.262Z,66.6
2017-05-30T03:43:16.371Z,66.99
2017-05-30T03:43:42.484Z,66.5
2017-05-30T03:44:08.614Z,67.37
2017-05-30T03:44:34.815Z,67.18
2017-05-30T03:45:00.981Z,67.18
2017-05-30T03:45:27.112Z,66.6
2017-05-30T03:45:53.254Z,67.18
2017-05-30T03:46:19.413Z,66.99
2017-05-30T03:46:45.527Z,67.18
2017-05-30T03:47:11.610Z,66.5
2017-05-30T03:47:37.735Z,66.99
2017-05-30T03:48:03.897Z,66.89
2017-05-30T03:48:29.988Z,66.69
2017-05-30T03:48:56.088Z,66.79
2017-05-30T03:49:22.278Z,66.79
2017-05-30T03:49:48.398Z,66.69
2017-05-30T03:50:14.507Z,67.27
2017-05-30T03:50:40.619Z,66.79
2017-05-30T03:51:06.748Z,66.69
2017-05-30T03:51:32.857Z,66.69
2017-05-30T03:51:58.974Z,67.14
2017-05-30T03:52:25.072Z,66.56
2017-05-30T03:52:51.210Z,66.69
2017-05-30T03:53:17.307Z,66.5
2017-05-30T03:53:43.471Z,66.5
2017-05-30T03:54:09.617Z,67.08
2017-05-30T03:54:35.714Z,66.99
2017-05-30T03:55:01.809Z,66.5
2017-05-30T03:55:27.962Z,66.89
2017-05-30T03:55:54.061Z,66.69
2017-05-30T03:56:20.169Z,66.79
2017-05-30T03:56:46.295Z,66.79
2017-05-30T03:57:12.413Z,66.5
2017-05-30T03:57:38.550Z,66.85
2017-05-30T03:58:04.678Z,66.99
2017-05-30T03:58:30.774Z,67.18
2017-05-30T03:58:56.885Z,66.99
2017-05-30T03:59:22.989Z,67.05
2017-05-30T03:59:49.106Z,67.18
2017-05-30T04:00:15.236Z,67.18
2017-05-30T04:00:41.374Z,67.18
2017-05-30T04:01:07.471Z,67.08
2017-05-30T04:01:33.569Z,67.24
2017-05-30T04:01:59.689Z,67.18
2017-05-30T04:02:25.800Z,66.95
2017-05-30T04:02:51.928Z,66.89
2017-05-30T04:03:18.047Z,67.18
2017-05-30T04:03:44.179Z,66.99
2017-05-30T04:04:10.314Z,66.99
2017-05-30T04:04:36.431Z,66.79
2017-05-30T04:05:02.535Z,66.69
2017-05-30T04:05:28.671Z,67.08
2017-05-30T04:05:54.765Z,66.99
2017-05-30T04:06:20.891Z,67.27
2017-05-30T04:06:47.053Z,66.89
2017-05-30T04:07:13.152Z,66.99
2017-05-30T04:07:39.294Z,67.05
2017-05-30T04:08:05.408Z,66.95
2017-05-30T04:08:31.561Z,67.34
2017-05-30T04:08:57.653Z,66.85
2017-05-30T04:09:23.763Z,67.44
2017-05-30T04:09:49.893Z,67.05
2017-05-30T04:10:16.011Z,67.63
2017-05-30T04:10:42.146Z,67.24
2017-05-30T04:11:08.257Z,67.24
2017-05-30T04:11:34.347Z,67.63
2017-05-30T04:12:00.515Z,67.53
2017-05-30T04:12:26.608Z,67.63
2017-05-30T04:12:52.746Z,67.44
2017-05-30T04:13:18.849Z,67.34
2017-05-30T04:13:44.942Z,67.44
2017-05-30T04:14:11.042Z,67.63
2017-05-30T04:14:37.178Z,67.53
2017-05-30T04:15:03.267Z,67.63
2017-05-30T04:15:29.372Z,67.72
2017-05-30T04:15:55.483Z,67.53
2017-05-30T04:16:21.574Z,67.05
2017-05-30T04:16:47.696Z,66.95
2017-05-30T04:17:13.832Z,67.05
2017-05-30T04:17:39.981Z,67.14
2017-05-30T04:18:06.117Z,67.24
2017-05-30T04:18:32.234Z,66.95
2017-05-30T04:18:58.337Z,67.24
2017-05-30T04:19:24.503Z,67.44
2017-05-30T04:19:50.622Z,67.24
2017-05-30T04:20:16.746Z,67.82
2017-05-30T04:20:42.883Z,67.24
2017-05-30T04:21:09.065Z,67.24
2017-05-30T04:21:35.209Z,67.44
2017-05-30T04:22:01.344Z,67.34
2017-05-30T04:22:27.442Z,67.92
2017-05-30T04:22:53.534Z,67.82
2017-05-30T04:23:19.642Z,67.14
2017-05-30T04:23:45.787Z,67.14
2017-05-30T04:24:11.979Z,67.82
2017-05-30T04:24:38.100Z,67.44
2017-05-30T04:25:04.242Z,67.82
2017-05-30T04:25:30.356Z,67.82
2017-05-30T04:25:56.454Z,67.63
2017-05-30T04:26:22.573Z,67.72
2017-05-30T04:26:48.709Z,68.02
2017-05-30T04:27:14.809Z,67.82
2017-05-30T04:27:40.901Z,67.63
2017-05-30T04:28:07.057Z,67.72
2017-05-30T04:28:33.219Z,67.82
2017-05-30T04:28:59.270Z,68.12
2017-05-30T04:29:25.413Z,67.82
2017-05-30T04:29:51.556Z,67.82
2017-05-30T04:30:17.663Z,67.82
2017-05-30T04:30:43.791Z,66.95
2017-05-30T04:31:09.883Z,67.05
2017-05-30T04:31:36.012Z,67.05
2017-05-30T04:32:02.122Z,67.53
2017-05-30T04:32:28.211Z,67.82
2017-05-30T04:32:54.339Z,67.72
2017-05-30T04:33:20.448Z,67.63
2017-05-30T04:33:46.567Z,67.44
2017-05-30T04:34:12.688Z,67.92
2017-05-30T04:34:38.789Z,67.44
2017-05-30T04:35:04.920Z,67.05
2017-05-30T04:35:31.059Z,67.24
2017-05-30T04:35:57.150Z,67.24
2017-05-30T04:36:23.251Z,67.24
2017-05-30T04:36:49.362Z,66.95
2017-05-30T04:37:15.454Z,67.05
2017-05-30T04:37:41.580Z,67.14
2017-05-30T04:38:07.717Z,67.24
2017-05-30T04:38:33.812Z,67.34
2017-05-30T04:38:59.906Z,67.34
2017-05-30T04:39:26.019Z,67.05
2017-05-30T04:39:52.120Z,67.63
2017-05-30T04:40:18.248Z,67.05
2017-05-30T04:40:44.342Z,67.44
2017-05-30T04:41:10.491Z,67.05
2017-05-30T04:41:36.600Z,67.14
2017-05-30T04:42:02.697Z,67.14
2017-05-30T04:42:28.790Z,67.14
2017-05-30T04:42:54.929Z,67.44
2017-05-30T04:43:21.078Z,67.05
2017-05-30T04:43:47.171Z,67.37
2017-05-30T04:44:13.280Z,66.5
2017-05-30T04:44:39.440Z,66.6
2017-05-30T04:45:05.532Z,66.69
2017-05-30T04:45:31.639Z,66.69
2017-05-30T04:45:57.812Z,66.3
2017-05-30T04:46:23.927Z,66.4
2017-05-30T04:46:50.051Z,66.4
2017-05-30T04:47:16.168Z,66.5
2017-05-30T04:47:42.277Z,66.4
2017-05-30T04:48:08.408Z,66.4
2017-05-30T04:48:34.525Z,66.5
2017-05-30T04:49:00.657Z,66.3
2017-05-30T04:49:26.795Z,66.6
2017-05-30T04:49:52.909Z,66.3
2017-05-30T04:50:19.035Z,66.3
2017-05-30T04:50:45.144Z,66.5
2017-05-30T04:51:11.318Z,66.11
2017-05-30T04:51:37.399Z,65.82
2017-05-30T04:52:03.539Z,66.2
2017-05-30T04:52:29.659Z,66.11
2017-05-30T04:52:55.777Z,66.2
2017-05-30T04:53:21.918Z,66.3
2017-05-30T04:53:48.099Z,66.6
2017-05-30T04:54:14.191Z,66.3
2017-05-30T04:54:40.324Z,66.3
2017-05-30T04:55:06.455Z,65.63
2017-05-30T04:55:32.571Z,66.11
2017-05-30T04:55:58.703Z,66.69
2017-05-30T04:56:24.810Z,66.02
2017-05-30T04:56:50.958Z,65.72
2017-05-30T04:57:17.059Z,65.72
2017-05-30T04:57:43.529Z,66.11
2017-05-30T04:58:09.717Z,65.53
2017-05-30T04:58:35.820Z,66.11
2017-05-30T04:59:01.915Z,65.63
2017-05-30T04:59:28.019Z,65.72
2017-05-30T04:59:54.126Z,65.72
2017-05-30T05:00:20.219Z,65.53
2017-05-30T05:00:46.323Z,65.63
2017-05-30T05:01:12.434Z,65.53
2017-05-30T05:01:38.554Z,65.63
2017-05-30T05:02:04.679Z,65.82
2017-05-30T05:02:30.831Z,65.69
2017-05-30T05:02:56.958Z,66.02
2017-05-30T05:03:23.097Z,65.92
2017-05-30T05:03:49.188Z,66.02
2017-05-30T05:04:15.317Z,66.2
2017-05-30T05:04:41.427Z,65.92
2017-05-30T05:05:07.546Z,65.63
2017-05-30T05:05:33.673Z,65.92
2017-05-30T05:05:59.782Z,65.72
2017-05-30T05:06:25.879Z,65.43
2017-05-30T05:06:52.073Z,65.72
2017-05-30T05:07:18.210Z,65.82
2017-05-30T05:07:44.339Z,65.72
2017-05-30T05:08:10.445Z,65.53
2017-05-30T05:08:36.562Z,65.72
2017-05-30T05:09:02.688Z,65.53
2017-05-30T05:09:28.823Z,66.02
2017-05-30T05:09:54.918Z,65.14
2017-05-30T05:10:21.010Z,65.63
2017-05-30T05:10:47.175Z,65.24
2017-05-30T05:11:13.274Z,65.34
2017-05-30T05:11:39.391Z,65.34
2017-05-30T05:12:05.501Z,65.43
2017-05-30T05:12:31.605Z,65.24
2017-05-30T05:12:57.700Z,65.43
2017-05-30T05:13:23.803Z,65.43
2017-05-30T05:13:49.896Z,65.24
2017-05-30T05:14:16.008Z,65.34
2017-05-30T05:14:42.111Z,64.85
2017-05-30T05:15:08.207Z,64.85
2017-05-30T05:15:34.316Z,64.75
2017-05-30T05:16:00.449Z,64.78
2017-05-30T05:16:26.548Z,64.75
2017-05-30T05:16:52.656Z,64.69
2017-05-30T05:17:18.763Z,64.5
2017-05-30T05:17:44.853Z,63.91
2017-05-30T05:18:10.981Z,64.2
2017-05-30T05:18:37.144Z,63.43
2017-05-30T05:19:03.242Z,63.82
2017-05-30T05:19:29.371Z,63.82
2017-05-30T05:19:55.487Z,63.88
2017-05-30T05:20:21.771Z,63.91
2017-05-30T05:20:47.910Z,63.53
2017-05-30T05:21:14.002Z,63.62
2017-05-30T05:21:40.154Z,63.91
2017-05-30T05:22:06.290Z,63.82
2017-05-30T05:22:32.385Z,63.88
2017-05-30T05:22:58.485Z,63.88
2017-05-30T05:23:24.621Z,63.49
2017-05-30T05:23:50.774Z,64.37
2017-05-30T05:24:16.894Z,63.98
2017-05-30T05:24:43.056Z,64.47
2017-05-30T05:25:09.180Z,64.65
2017-05-30T05:25:35.321Z,64.85
2017-05-30T05:26:01.414Z,64.17
2017-05-30T05:26:27.514Z,64.07
2017-05-30T05:26:53.623Z,64.47
2017-05-30T05:27:19.743Z,64.27
2017-05-30T05:27:45.837Z,64.82
2017-05-30T05:28:11.977Z,64.43
2017-05-30T05:28:38.158Z,64.53
2017-05-30T05:29:04.298Z,64.72
2017-05-30T05:29:30.407Z,64.85
2017-05-30T05:29:56.510Z,64.75
2017-05-30T05:30:22.636Z,64.65
2017-05-30T05:30:48.732Z,64.17
2017-05-30T05:31:14.826Z,64.37
2017-05-30T05:31:40.967Z,64.37
2017-05-30T05:32:07.121Z,63.69
2017-05-30T05:32:33.212Z,63.78
2017-05-30T05:32:59.364Z,63.78
2017-05-30T05:33:25.506Z,63.88
2017-05-30T05:33:51.674Z,63.98
2017-05-30T05:34:17.805Z,63.88
2017-05-30T05:34:43.942Z,63.88
2017-05-30T05:35:10.032Z,63.88
2017-05-30T05:35:36.135Z,63.4
2017-05-30T05:36:02.244Z,63.49
2017-05-30T05:36:28.338Z,63.4
2017-05-30T05:36:54.437Z,63.01
2017-05-30T05:37:20.547Z,63.1